createdAt,value
2022-09-28T00:01:01.313Z,89.6
2022-09-28T00:02:04.654Z,90.3
2022-09-28T00:03:08.197Z,90.5
2022-09-28T00:04:11.511Z,90.3
2022-09-28T00:05:14.287Z,90.2
2022-09-28T00:06:17.619Z,90.2
2022-09-28T00:07:20.980Z,90
2022-09-28T00:08:23.693Z,90.1
2022-09-28T00:09:27.682Z,90.1
2022-09-28T00:10:29.982Z,90.2
2022-09-28T00:11:33.081Z,90.4
2022-09-28T00:12:36.950Z,90.2
2022-09-28T00:13:40.008Z,90.1
2022-09-28T00:14:42.995Z,90.3
2022-09-28T00:15:46.412Z,90.3
2022-09-28T00:16:50.315Z,90.9
2022-09-28T00:17:53.963Z,90.6
2022-09-28T00:18:56.671Z,90.3
2022-09-28T00:20:00.016Z,90.1
2022-09-28T00:21:02.804Z,90
2022-09-28T00:22:05.994Z,89.8
2022-09-28T00:23:08.862Z,89.8
2022-09-28T00:24:11.942Z,90
2022-09-28T00:25:15.078Z,90.6
2022-09-28T00:26:18.347Z,90.4
2022-09-28T00:27:21.400Z,90.1
2022-09-28T00:28:25.241Z,90
2022-09-28T00:29:28.382Z,90.1
2022-09-28T00:30:31.444Z,90.2
2022-09-28T00:31:34.292Z,90.1
2022-09-28T00:32:37.395Z,90.1
2022-09-28T00:33:40.546Z,90.2
2022-09-28T00:34:43.584Z,89.7
2022-09-28T00:35:46.142Z,89.4
2022-09-28T00:36:48.835Z,89.7
2022-09-28T00:37:52.161Z,89.8
2022-09-28T00:38:55.617Z,90
2022-09-28T00:39:59.338Z,89.7
2022-09-28T00:41:02.547Z,89.4
2022-09-28T00:42:05.421Z,89.5
2022-09-28T00:43:08.060Z,89.6
2022-09-28T00:44:12.162Z,89.5
2022-09-28T00:45:14.393Z,89.3
2022-09-28T00:46:17.698Z,89.5
2022-09-28T00:47:21.612Z,90
2022-09-28T00:48:24.758Z,90.2
2022-09-28T00:49:27.995Z,90.2
2022-09-28T00:50:30.794Z,90.3
2022-09-28T00:51:33.955Z,90.1
2022-09-28T00:52:37.384Z,90
2022-09-28T00:53:40.455Z,89.8
2022-09-28T00:54:43.944Z,90.2
2022-09-28T00:55:47.381Z,90.2
2022-09-28T00:56:50.278Z,89.9
2022-09-28T00:57:53.545Z,90
2022-09-28T00:58:57.138Z,89.9
2022-09-28T01:00:01.023Z,89.8
2022-09-28T01:01:04.550Z,89.8
2022-09-28T01:02:08.268Z,89.6
2022-09-28T01:03:10.647Z,89.7
2022-09-28T01:04:13.720Z,89.8
2022-09-28T01:05:16.515Z,89.5
2022-09-28T01:06:19.682Z,89.4
2022-09-28T01:07:22.839Z,89.3
2022-09-28T01:08:25.833Z,89.9
2022-09-28T01:09:28.709Z,90.1
2022-09-28T01:10:32.330Z,90.1
2022-09-28T01:11:35.481Z,90.4
2022-09-28T01:12:38.354Z,90.1
2022-09-28T01:13:40.792Z,90.4
2022-09-28T01:14:43.729Z,90.8
2022-09-28T01:15:47.832Z,90.5
2022-09-28T01:16:51.672Z,90
2022-09-28T01:17:54.233Z,90.1
2022-09-28T01:18:56.188Z,90
2022-09-28T01:19:58.989Z,90.2
2022-09-28T01:21:02.382Z,90.2
2022-09-28T01:22:05.454Z,90.1
2022-09-28T01:23:08.052Z,89.8
2022-09-28T01:24:10.600Z,89.9
2022-09-28T01:25:13.395Z,90.2
2022-09-28T01:26:15.989Z,90.4
2022-09-28T01:27:18.505Z,90.3
2022-09-28T01:28:20.947Z,90.4
2022-09-28T01:29:24.043Z,90.1
2022-09-28T01:30:26.962Z,90
2022-09-28T01:31:31.432Z,90.1
2022-09-28T01:32:34.958Z,89.9
2022-09-28T01:33:37.967Z,89.9
2022-09-28T01:34:40.769Z,89.7
2022-09-28T01:35:43.945Z,89.7
2022-09-28T01:36:45.992Z,89.7
2022-09-28T01:37:48.987Z,89.6
2022-09-28T01:38:52.358Z,89.3
2022-09-28T01:39:55.850Z,88.7
2022-09-28T01:40:59.034Z,89.1
2022-09-28T01:42:02.107Z,89.8
2022-09-28T01:43:04.704Z,89.7
2022-09-28T01:44:07.515Z,89.7
2022-09-28T01:45:10.412Z,89.8
2022-09-28T01:46:13.845Z,90.2
2022-09-28T01:47:18.162Z,90.1
2022-09-28T01:48:21.249Z,90.1
2022-09-28T01:49:24.980Z,89.8
2022-09-28T01:50:28.233Z,89.5
2022-09-28T01:51:31.392Z,89.5
2022-09-28T01:52:33.997Z,89.6
2022-09-28T01:53:36.796Z,89.4
2022-09-28T01:54:39.305Z,89.5
2022-09-28T01:55:43.314Z,89.6
2022-09-28T01:56:46.935Z,89.7
2022-09-28T01:57:49.926Z,90
2022-09-28T01:58:52.726Z,90.1
2022-09-28T01:59:56.070Z,89.8
2022-09-28T02:00:58.951Z,89.7
2022-09-28T02:02:02.913Z,89.6
2022-09-28T02:03:07.177Z,89.3
2022-09-28T02:04:10.041Z,89.6
2022-09-28T02:05:13.517Z,89.3
2022-09-28T02:06:16.306Z,89.5
2022-09-28T02:07:19.183Z,89.5
2022-09-28T02:08:22.853Z,89.1
2022-09-28T02:09:27.673Z,89
2022-09-28T02:10:36.974Z,89.1
2022-09-28T02:11:39.762Z,89.5
2022-09-28T02:12:42.638Z,89.9
2022-09-28T02:13:45.432Z,89.7
2022-09-28T02:14:48.301Z,89.4
2022-09-28T02:15:51.393Z,89.2
2022-09-28T02:16:54.113Z,89.4
2022-09-28T02:17:57.163Z,89.1
2022-09-28T02:19:01.256Z,89
2022-09-28T02:20:03.762Z,88.8
2022-09-28T02:21:06.560Z,88.8
2022-09-28T02:22:09.441Z,88.7
2022-09-28T02:23:12.873Z,88.5
2022-09-28T02:24:22.697Z,88.8
2022-09-28T02:25:25.684Z,88.8
2022-09-28T02:26:29.030Z,88.9
2022-09-28T02:27:32.444Z,89.1
2022-09-28T02:28:35.161Z,88.9
2022-09-28T02:29:38.228Z,88.7
2022-09-28T02:30:41.653Z,88.8
2022-09-28T02:31:45.375Z,89.2
2022-09-28T02:32:48.201Z,89.1
2022-09-28T02:33:51.339Z,88.9
2022-09-28T02:34:55.515Z,89
2022-09-28T02:35:58.702Z,89
2022-09-28T02:37:01.669Z,88.9
2022-09-28T02:38:05.103Z,88.6
2022-09-28T02:39:08.459Z,88.7
2022-09-28T02:40:11.247Z,88.7
2022-09-28T02:41:14.598Z,88.8
2022-09-28T02:42:17.403Z,88.7
2022-09-28T02:43:21.131Z,89.1
2022-09-28T02:44:24.120Z,89
2022-09-28T02:45:27.772Z,88.9
2022-09-28T02:46:30.762Z,88.9
2022-09-28T02:47:33.832Z,89.2
2022-09-28T02:49:21.264Z,89.6
2022-09-28T02:50:26.879Z,89.1
2022-09-28T02:51:29.399Z,88.9
2022-09-28T02:52:32.389Z,88.8
2022-09-28T02:53:35.178Z,88.9
2022-09-28T02:54:38.074Z,88.6
2022-09-28T02:55:41.168Z,88.5
2022-09-28T02:56:44.431Z,88.5
2022-09-28T02:57:46.952Z,88.8
2022-09-28T02:58:50.121Z,88.5
2022-09-28T02:59:52.837Z,88.5
2022-09-28T03:00:56.164Z,88.3
2022-09-28T03:01:59.244Z,88.6
2022-09-28T03:03:02.754Z,88.8
2022-09-28T03:04:05.896Z,88.9
2022-09-28T03:05:07.957Z,88.8
2022-09-28T03:06:12.070Z,88.7
2022-09-28T03:07:14.501Z,89.3
2022-09-28T03:08:17.841Z,89.1
2022-09-28T03:09:20.434Z,89
2022-09-28T03:10:23.153Z,88.9
2022-09-28T03:11:26.154Z,89.5
2022-09-28T03:12:28.746Z,89.3
2022-09-28T03:13:31.735Z,89.1
2022-09-28T03:14:34.903Z,89
2022-09-28T03:15:38.002Z,89
2022-09-28T03:16:41.380Z,88.8
2022-09-28T03:17:44.316Z,88.9
2022-09-28T03:18:47.473Z,88.9
2022-09-28T03:19:50.745Z,88.8
2022-09-28T03:20:54.221Z,89.1
2022-09-28T03:21:58.327Z,88.9
2022-09-28T03:23:26.386Z,88.9
2022-09-28T03:24:29.129Z,89.1
2022-09-28T03:25:31.789Z,88.8
2022-09-28T03:26:35.130Z,88.7
2022-09-28T03:27:37.918Z,88.9
2022-09-28T03:28:40.233Z,89
2022-09-28T03:29:43.020Z,89
2022-09-28T03:30:46.161Z,88.9
2022-09-28T03:31:49.844Z,89.2
2022-09-28T03:32:52.543Z,89.1
2022-09-28T03:33:56.002Z,89.1
2022-09-28T03:34:59.102Z,89.2
2022-09-28T03:36:01.992Z,89.3
2022-09-28T03:37:06.125Z,89.4
2022-09-28T03:38:09.764Z,89.3
2022-09-28T03:39:12.358Z,89.3
2022-09-28T03:40:15.402Z,89.1
2022-09-28T03:41:17.870Z,88.9
2022-09-28T03:42:21.230Z,88.8
2022-09-28T03:43:23.741Z,88.7
2022-09-28T03:44:26.543Z,88.9
2022-09-28T03:45:30.172Z,88.8
2022-09-28T03:46:33.686Z,88.6
2022-09-28T03:47:36.673Z,88.5
2022-09-28T03:48:39.269Z,88.9
2022-09-28T03:49:41.789Z,89.3
2022-09-28T03:50:44.935Z,89.1
2022-09-28T03:51:48.689Z,88.9
2022-09-28T03:52:52.792Z,88.6
2022-09-28T03:53:56.242Z,88.6
2022-09-28T03:54:59.067Z,88.5
2022-09-28T03:56:01.731Z,88.8
2022-09-28T03:57:04.924Z,88.8
2022-09-28T03:58:07.805Z,88.7
2022-09-28T03:59:10.144Z,89
2022-09-28T04:00:13.205Z,88.9
2022-09-28T04:01:19.383Z,88.8
2022-09-28T04:02:23.384Z,88.8
2022-09-28T04:03:26.649Z,88.7
2022-09-28T04:04:28.916Z,88.5
2022-09-28T04:05:31.983Z,88.5
2022-09-28T04:06:34.400Z,88.5
2022-09-28T04:07:37.539Z,88.6
2022-09-28T04:08:41.669Z,88.8
2022-09-28T04:09:44.926Z,88.8
2022-09-28T04:10:48.333Z,88.5
2022-09-28T04:12:05.370Z,88.9
2022-09-28T04:13:09.013Z,89.2
2022-09-28T04:14:12.106Z,89.2
2022-09-28T04:15:15.453Z,89.1
2022-09-28T04:16:19.303Z,89.1
2022-09-28T04:17:22.704Z,88.8
2022-09-28T04:18:25.576Z,88.6
2022-09-28T04:19:28.649Z,88.6
2022-09-28T04:20:31.160Z,88.5
2022-09-28T04:21:33.955Z,88.8
2022-09-28T04:22:37.621Z,88.8
2022-09-28T04:23:41.110Z,88.6
2022-09-28T04:24:45.223Z,88.5
2022-09-28T04:25:48.673Z,88.3
2022-09-28T04:26:52.384Z,88.4
2022-09-28T04:27:55.554Z,88.4
2022-09-28T04:29:07.159Z,88.2
2022-09-28T04:30:09.729Z,88.1
2022-09-28T04:31:13.168Z,87.9
2022-09-28T04:32:16.186Z,88
2022-09-28T04:33:19.910Z,88.2
2022-09-28T04:34:23.083Z,88.4
2022-09-28T04:35:26.228Z,88.1
2022-09-28T04:36:29.301Z,88.1
2022-09-28T04:37:32.722Z,88.2
2022-09-28T04:38:54.652Z,88.2
2022-09-28T04:39:58.697Z,88.3
2022-09-28T04:41:02.056Z,88.5
2022-09-28T04:42:05.625Z,88.8
2022-09-28T04:43:09.402Z,89
2022-09-28T04:44:12.002Z,89.1
2022-09-28T04:45:16.003Z,88.9
2022-09-28T04:46:19.474Z,88.7
2022-09-28T04:47:22.581Z,89
2022-09-28T04:48:25.376Z,88.8
2022-09-28T04:49:28.486Z,88.8
2022-09-28T04:50:31.386Z,88.9
2022-09-28T04:51:34.537Z,89
2022-09-28T04:52:37.250Z,89
2022-09-28T04:53:40.508Z,88.9
2022-09-28T04:54:43.622Z,88.9
2022-09-28T04:55:47.716Z,88.9
2022-09-28T04:56:50.537Z,88.7
2022-09-28T04:57:53.635Z,88.5
2022-09-28T04:58:56.594Z,88.9
2022-09-28T05:00:00.039Z,88.9
2022-09-28T05:01:03.555Z,88.9
2022-09-28T05:02:07.434Z,89
2022-09-28T05:03:10.736Z,89.1
2022-09-28T05:04:13.890Z,89.1
2022-09-28T05:05:16.963Z,88.9
2022-09-28T05:06:19.489Z,89
2022-09-28T05:07:22.083Z,89.2
2022-09-28T05:08:24.507Z,89.1
2022-09-28T05:09:27.642Z,89
2022-09-28T05:10:30.477Z,88.8
2022-09-28T05:11:34.647Z,88.7
2022-09-28T05:12:37.467Z,88.6
2022-09-28T05:13:40.879Z,88.8
2022-09-28T05:14:43.586Z,88.8
2022-09-28T05:15:46.739Z,88.6
2022-09-28T05:16:49.876Z,88.8
2022-09-28T05:17:53.336Z,88.6
2022-09-28T05:18:56.601Z,88.5
2022-09-28T05:19:58.765Z,88.4
2022-09-28T05:21:01.857Z,88.5
2022-09-28T05:22:05.010Z,88.6
2022-09-28T05:23:07.880Z,88.8
2022-09-28T05:24:10.551Z,88.7
2022-09-28T05:25:13.552Z,89
2022-09-28T05:26:16.383Z,89
2022-09-28T05:27:20.515Z,89.2
2022-09-28T05:28:22.827Z,89.2
2022-09-28T05:29:32.755Z,89
2022-09-28T05:30:35.592Z,89.2
2022-09-28T05:31:39.629Z,89.2
2022-09-28T05:32:42.662Z,89.2
2022-09-28T05:33:45.808Z,89.3
2022-09-28T05:34:48.887Z,89.2
2022-09-28T05:36:02.507Z,89.2
2022-09-28T05:37:06.062Z,89.1
2022-09-28T05:38:08.664Z,89.1
2022-09-28T05:39:11.999Z,89.3
2022-09-28T05:40:15.737Z,89.2
2022-09-28T05:41:18.741Z,89.2
2022-09-28T05:42:22.848Z,89
2022-09-28T05:43:26.599Z,89
2022-09-28T05:44:29.221Z,89.3
2022-09-28T05:45:32.681Z,89.1
2022-09-28T05:46:35.149Z,89.4
2022-09-28T05:47:38.226Z,89.2
2022-09-28T05:48:40.820Z,89.2
2022-09-28T05:49:43.972Z,89.2
2022-09-28T05:50:47.699Z,89.1
2022-09-28T05:51:50.496Z,89
2022-09-28T05:52:53.367Z,88.9
2022-09-28T05:53:56.511Z,89.2
2022-09-28T05:55:08.222Z,89.4
2022-09-28T05:56:11.327Z,89.7
2022-09-28T05:57:14.488Z,89.4
2022-09-28T05:58:18.072Z,89.1
2022-09-28T05:59:21.521Z,89
2022-09-28T06:00:24.722Z,89
2022-09-28T06:01:27.367Z,88.8
2022-09-28T06:02:31.540Z,88.7
2022-09-28T06:03:34.530Z,88.7
2022-09-28T06:04:37.603Z,88.5
2022-09-28T06:05:41.307Z,88.7
2022-09-28T06:06:44.097Z,88.4
2022-09-28T06:07:46.399Z,88.3
2022-09-28T06:08:49.364Z,88.3
2022-09-28T06:09:52.513Z,88.7
2022-09-28T06:10:55.300Z,88.8
2022-09-28T06:11:58.471Z,88.6
2022-09-28T06:13:01.366Z,88.6
2022-09-28T06:14:04.967Z,88.3
2022-09-28T06:15:08.041Z,88.7
2022-09-28T06:16:11.120Z,88.2
2022-09-28T06:17:14.405Z,88.3
2022-09-28T06:18:17.156Z,88.1
2022-09-28T06:19:20.570Z,88.1
2022-09-28T06:20:24.296Z,88.1
2022-09-28T06:21:27.726Z,88.2
2022-09-28T06:22:31.453Z,88.2
2022-09-28T06:23:34.547Z,87.9
2022-09-28T06:24:36.990Z,87.7
2022-09-28T06:25:39.862Z,87.5
2022-09-28T06:26:42.938Z,87.9
2022-09-28T06:27:46.011Z,88
2022-09-28T06:28:48.672Z,88.4
2022-09-28T06:29:52.434Z,88.3
2022-09-28T06:30:55.698Z,88
2022-09-28T06:31:59.561Z,88
2022-09-28T06:33:03.099Z,88.7
2022-09-28T06:34:06.175Z,88.9
2022-09-28T06:35:09.533Z,88.6
2022-09-28T06:36:12.688Z,88.7
2022-09-28T06:37:16.144Z,88.3
2022-09-28T06:38:19.526Z,88.1
2022-09-28T06:39:23.250Z,87.9
2022-09-28T06:40:26.331Z,87.9
2022-09-28T06:41:29.634Z,87.8
2022-09-28T06:42:32.985Z,88.4
2022-09-28T06:43:35.905Z,88.2
2022-09-28T06:44:38.698Z,88.3
2022-09-28T06:45:42.853Z,88.2
2022-09-28T06:46:46.520Z,87.8
2022-09-28T06:47:49.601Z,87.9
2022-09-28T06:48:52.678Z,87.7
2022-09-28T06:49:56.293Z,87.9
2022-09-28T06:50:59.821Z,87.7
2022-09-28T06:52:02.812Z,87.6
2022-09-28T06:53:05.208Z,87.9
2022-09-28T06:54:08.198Z,88
2022-09-28T06:55:11.331Z,88.3
2022-09-28T06:56:14.397Z,88.2
2022-09-28T06:57:17.463Z,88.3
2022-09-28T06:58:20.923Z,87.9
2022-09-28T06:59:24.540Z,88.1
2022-09-28T07:00:27.367Z,87.8
2022-09-28T07:01:31.203Z,87.5
2022-09-28T07:02:34.541Z,87.3
2022-09-28T07:03:37.585Z,87.5
2022-09-28T07:04:40.187Z,87.5
2022-09-28T07:05:43.985Z,87.3
2022-09-28T07:06:46.529Z,87.2
2022-09-28T07:07:50.194Z,87.7
2022-09-28T07:09:36.920Z,87.9
2022-09-28T07:10:57.621Z,88
2022-09-28T07:11:59.940Z,88.1
2022-09-28T07:13:03.788Z,87.8
2022-09-28T07:14:08.055Z,87.4
2022-09-28T07:15:50.121Z,87.3
2022-09-28T07:17:16.001Z,87.2
2022-09-28T07:18:20.675Z,86.8
2022-09-28T07:19:23.960Z,86.7
2022-09-28T07:20:26.721Z,86.7
2022-09-28T07:21:32.163Z,86.1
2022-09-28T07:22:44.675Z,85.6
2022-09-28T07:23:55.482Z,85.7
2022-09-28T07:24:58.357Z,86.3
2022-09-28T07:26:02.050Z,86.3
2022-09-28T07:27:06.662Z,86.1
2022-09-28T07:28:09.744Z,84.4
2022-09-28T07:29:13.014Z,84.3
2022-09-28T07:30:16.756Z,84.1
2022-09-28T07:31:19.629Z,84.7
2022-09-28T07:32:24.257Z,84.8
2022-09-28T07:33:28.108Z,85
2022-09-28T07:34:31.204Z,84.6
2022-09-28T07:35:34.650Z,84.5
2022-09-28T07:36:37.522Z,83.5
2022-09-28T07:37:40.619Z,83
2022-09-28T07:38:43.715Z,83.2
2022-09-28T07:39:47.450Z,83.2
2022-09-28T07:40:50.816Z,83.3
2022-09-28T07:42:03.742Z,83.2
2022-09-28T07:43:07.010Z,83.4
2022-09-28T07:44:09.803Z,83.7
2022-09-28T07:45:12.545Z,84
2022-09-28T07:46:15.982Z,84.3
2022-09-28T07:47:20.150Z,84.7
2022-09-28T07:48:23.716Z,84.1
2022-09-28T07:49:26.722Z,84.5
2022-09-28T07:50:29.803Z,85.4
2022-09-28T07:51:32.955Z,84.7
2022-09-28T07:52:36.595Z,84.7
2022-09-28T07:53:39.509Z,84.1
2022-09-28T07:54:42.968Z,83.4
2022-09-28T07:55:46.626Z,83.3
2022-09-28T07:56:50.353Z,83.2
2022-09-28T07:57:53.453Z,84.1
2022-09-28T07:58:56.597Z,84.8
2022-09-28T08:00:00.632Z,84.4
2022-09-28T08:01:04.318Z,84
2022-09-28T08:02:08.014Z,83.6
2022-09-28T08:03:12.257Z,82.8
2022-09-28T08:04:16.171Z,82.9
2022-09-28T08:05:20.206Z,82.6
2022-09-28T08:06:23.087Z,82.5
2022-09-28T08:07:26.546Z,82.5
2022-09-28T08:08:28.795Z,82.2
2022-09-28T08:09:32.530Z,82.2
2022-09-28T08:10:35.302Z,82.3
2022-09-28T08:11:38.331Z,82.4
2022-09-28T08:12:41.486Z,82.7
2022-09-28T08:13:43.860Z,82.9
2022-09-28T08:14:47.042Z,82.8
2022-09-28T08:15:51.046Z,83.3
2022-09-28T08:16:54.604Z,83.1
2022-09-28T08:18:04.109Z,83.3
2022-09-28T08:19:06.717Z,82.7
2022-09-28T08:20:10.223Z,83.1
2022-09-28T08:21:13.934Z,83
2022-09-28T08:22:16.888Z,82.3
2022-09-28T08:23:20.614Z,83.1
2022-09-28T08:24:24.423Z,82.6
2022-09-28T08:25:27.211Z,82.5
2022-09-28T08:26:30.667Z,81.4
2022-09-28T08:27:34.323Z,82.1
2022-09-28T08:28:36.900Z,82.2
2022-09-28T08:29:40.426Z,82.4
2022-09-28T08:30:43.485Z,81.8
2022-09-28T08:31:47.301Z,82
2022-09-28T08:32:50.176Z,82.2
2022-09-28T08:33:53.359Z,82.3
2022-09-28T08:34:56.637Z,82.1
2022-09-28T08:36:00.599Z,81.9
2022-09-28T08:37:03.730Z,81.2
2022-09-28T08:38:06.162Z,81.1
2022-09-28T08:39:09.522Z,81
2022-09-28T08:40:12.398Z,80.3
2022-09-28T08:41:15.395Z,80.3
2022-09-28T08:42:18.115Z,80.5
2022-09-28T08:43:20.982Z,81.4
2022-09-28T08:44:24.001Z,80.3
2022-09-28T08:45:26.953Z,80.5
2022-09-28T08:46:30.028Z,80.5
2022-09-28T08:47:32.978Z,80.7
2022-09-28T08:48:36.436Z,79.6
2022-09-28T08:49:39.157Z,80.1
2022-09-28T08:50:42.803Z,79.9
2022-09-28T08:51:46.279Z,79.6
2022-09-28T08:52:49.778Z,79.6
2022-09-28T08:53:53.580Z,79.6
2022-09-28T08:54:56.750Z,79.4
2022-09-28T08:55:58.981Z,80
2022-09-28T08:57:02.793Z,80
2022-09-28T08:58:05.659Z,80.7
2022-09-28T08:59:09.159Z,80.3
2022-09-28T09:00:13.463Z,79.2
2022-09-28T09:01:17.583Z,79.6
2022-09-28T09:02:21.163Z,78.6
2022-09-28T09:03:24.134Z,79.2
2022-09-28T09:04:27.209Z,77.2
2022-09-28T09:05:30.328Z,77.6
2022-09-28T09:06:32.981Z,77.1
2022-09-28T09:07:36.992Z,77.6
2022-09-28T09:08:40.469Z,78
2022-09-28T09:09:43.292Z,77.6
2022-09-28T09:10:45.739Z,78
2022-09-28T09:11:49.002Z,77.5
2022-09-28T09:13:56.054Z,75.1
2022-09-28T09:14:58.857Z,72.9
2022-09-28T09:16:01.591Z,73
2022-09-28T09:17:05.220Z,73.7
2022-09-28T09:18:09.418Z,71.9
2022-09-28T09:19:12.445Z,71.8
2022-09-28T09:20:15.913Z,72.2
2022-09-28T09:21:19.560Z,74.1
2022-09-28T09:22:22.355Z,75.1
2022-09-28T09:23:26.264Z,75.5
2022-09-28T09:24:29.690Z,75.5
2022-09-28T09:25:39.661Z,76.4
2022-09-28T09:26:42.374Z,76.8
2022-09-28T09:27:45.536Z,77.1
2022-09-28T09:28:48.335Z,76.6
2022-09-28T09:29:51.170Z,78.1
2022-09-28T09:30:54.175Z,78.7
2022-09-28T09:31:57.780Z,77.1
2022-09-28T09:33:01.132Z,76.6
2022-09-28T09:34:04.206Z,76.6
2022-09-28T09:35:07.556Z,76.5
2022-09-28T09:36:10.348Z,76.9
2022-09-28T09:37:13.776Z,77.2
2022-09-28T09:38:16.765Z,77.4
2022-09-28T09:39:20.594Z,77.5
2022-09-28T09:40:23.927Z,76.6
2022-09-28T09:41:27.480Z,76.8
2022-09-28T09:42:30.898Z,76.4
2022-09-28T09:43:34.625Z,75.6
2022-09-28T09:44:38.062Z,77.2
2022-09-28T09:45:41.927Z,78.2
2022-09-28T09:46:45.168Z,75.1
2022-09-28T09:47:48.422Z,75
2022-09-28T09:48:51.296Z,75.5
2022-09-28T09:49:55.026Z,74.6
2022-09-28T09:50:58.103Z,74.9
2022-09-28T09:52:01.288Z,74.6
2022-09-28T09:53:04.660Z,74.2
2022-09-28T09:54:08.293Z,72.9
2022-09-28T09:55:12.438Z,75.3
2022-09-28T09:56:16.283Z,75.5
2022-09-28T09:57:19.990Z,75
2022-09-28T09:58:23.210Z,74.2
2022-09-28T09:59:26.692Z,74.1
2022-09-28T10:00:29.561Z,74.2
2022-09-28T10:01:32.269Z,73.7
2022-09-28T10:02:35.942Z,72.9
2022-09-28T10:03:38.601Z,72.9
2022-09-28T10:04:42.294Z,72.1
2022-09-28T10:05:44.715Z,70.6
2022-09-28T10:06:47.668Z,70.1
2022-09-28T10:07:50.737Z,70.8
2022-09-28T10:08:53.602Z,71.8
2022-09-28T10:09:57.056Z,70.8
2022-09-28T10:11:00.882Z,72.4
2022-09-28T10:12:04.613Z,71.4
2022-09-28T10:13:07.407Z,73.1
2022-09-28T10:14:10.391Z,73.6
2022-09-28T10:15:13.494Z,74.4
2022-09-28T10:16:17.366Z,75
2022-09-28T10:17:20.839Z,72.4
2022-09-28T10:18:23.947Z,72.4
2022-09-28T10:19:27.597Z,72.4
2022-09-28T10:20:31.334Z,72.9
2022-09-28T10:21:34.231Z,71.2
2022-09-28T10:22:37.682Z,72.2
2022-09-28T10:23:41.063Z,71.5
2022-09-28T10:24:44.144Z,69.9
2022-09-28T10:25:46.870Z,70.7
2022-09-28T10:26:50.646Z,71.3
2022-09-28T10:27:54.249Z,72.7
2022-09-28T10:28:57.401Z,73
2022-09-28T10:30:01.176Z,71.1
2022-09-28T10:31:04.663Z,70.2
2022-09-28T10:32:08.067Z,68.8
2022-09-28T10:33:11.858Z,67.4
2022-09-28T10:34:15.748Z,66.3
2022-09-28T10:35:19.702Z,66.8
2022-09-28T10:36:23.214Z,64.1
2022-09-28T10:37:26.213Z,65.5
2022-09-28T10:38:28.820Z,67.4
2022-09-28T10:39:32.274Z,68.8
2022-09-28T10:40:35.787Z,68.5
2022-09-28T10:41:39.261Z,69.8
2022-09-28T10:42:43.387Z,70.3
2022-09-28T10:43:58.436Z,70.8
2022-09-28T10:45:01.153Z,70.5
2022-09-28T10:46:04.363Z,70.2
2022-09-28T10:47:06.974Z,69.9
2022-09-28T10:48:09.768Z,68.9
2022-09-28T10:49:12.373Z,65.4
2022-09-28T10:50:14.885Z,64.8
2022-09-28T10:51:17.683Z,61.1
2022-09-28T10:52:20.856Z,61.9
2022-09-28T10:53:24.007Z,60.1
2022-09-28T10:54:28.077Z,62.5
2022-09-28T10:55:30.796Z,63.9
2022-09-28T10:56:34.142Z,63.1
2022-09-28T10:57:37.134Z,62.1
2022-09-28T10:58:40.711Z,62.2
2022-09-28T10:59:44.093Z,62
2022-09-28T11:00:47.573Z,63.3
2022-09-28T11:01:50.713Z,62.6
2022-09-28T11:02:54.214Z,62.6
2022-09-28T11:03:57.050Z,61.8
2022-09-28T11:05:00.128Z,64.5
2022-09-28T11:06:03.134Z,66.5
2022-09-28T11:07:07.135Z,66.6
2022-09-28T11:08:10.134Z,66.5
2022-09-28T11:09:12.994Z,65.1
2022-09-28T11:10:16.791Z,64.1
2022-09-28T11:11:20.444Z,63.1
2022-09-28T11:12:24.168Z,62.7
2022-09-28T11:13:26.613Z,62.8
2022-09-28T11:14:31.329Z,61.6
2022-09-28T11:15:35.076Z,61.1
2022-09-28T11:16:38.682Z,60.2
2022-09-28T11:17:42.327Z,58.6
2022-09-28T11:18:46.129Z,57.4
2022-09-28T11:19:49.272Z,55.9
2022-09-28T11:20:51.995Z,57
2022-09-28T11:21:55.067Z,56.4
2022-09-28T11:22:58.249Z,57.7
2022-09-28T11:24:01.349Z,57
2022-09-28T11:25:04.858Z,58.7
2022-09-28T11:26:08.591Z,58.1
2022-09-28T11:27:12.051Z,60.4
2022-09-28T11:28:15.888Z,59.4
2022-09-28T11:29:19.681Z,61
2022-09-28T11:30:24.178Z,61
2022-09-28T11:31:27.552Z,61.2
2022-09-28T11:32:30.718Z,62.8
2022-09-28T11:33:33.787Z,63.4
2022-09-28T11:35:01.232Z,63.7
2022-09-28T11:36:04.605Z,64.4
2022-09-28T11:37:07.494Z,64.7
2022-09-28T11:38:10.386Z,64.4
2022-09-28T11:39:13.787Z,64.5
2022-09-28T11:40:17.359Z,64.9
2022-09-28T11:41:20.723Z,62.7
2022-09-28T11:42:24.425Z,61.2
2022-09-28T11:43:27.947Z,58.8
2022-09-28T11:44:34.632Z,57.1
2022-09-28T11:45:38.688Z,58.6
2022-09-28T11:46:42.443Z,59.8
2022-09-28T11:47:45.515Z,60.6
2022-09-28T11:48:48.578Z,57.5
2022-09-28T11:49:51.470Z,59
2022-09-28T11:50:55.205Z,59.3
2022-09-28T11:51:58.302Z,60
2022-09-28T11:53:01.395Z,59.7
2022-09-28T11:54:04.554Z,60.7
2022-09-28T11:55:07.440Z,61.9
2022-09-28T11:56:10.867Z,64
2022-09-28T11:57:14.558Z,65.9
2022-09-28T11:58:17.722Z,66.9
2022-09-28T11:59:20.049Z,67.4
2022-09-28T12:00:22.368Z,68.4
2022-09-28T12:01:25.927Z,68.7
2022-09-28T12:02:29.777Z,66.7
2022-09-28T12:03:33.263Z,65.1
2022-09-28T12:04:36.890Z,65.4
2022-09-28T12:05:40.315Z,66.5
2022-09-28T12:06:43.754Z,64.1
2022-09-28T12:07:46.909Z,64.9
2022-09-28T12:08:50.082Z,64.8
2022-09-28T12:09:53.700Z,66.7
2022-09-28T12:10:56.928Z,65.3
2022-09-28T12:12:00.349Z,66.9
2022-09-28T12:13:03.971Z,67.7
2022-09-28T12:14:06.306Z,64.1
2022-09-28T12:15:09.210Z,64.1
2022-09-28T12:17:20.076Z,63.8
2022-09-28T12:18:24.838Z,64.7
2022-09-28T12:19:27.340Z,66.9
2022-09-28T12:20:31.071Z,65.8
2022-09-28T12:21:33.872Z,66.7
2022-09-28T12:22:37.299Z,65.6
2022-09-28T12:23:40.769Z,66.5
2022-09-28T12:24:44.512Z,67
2022-09-28T12:25:47.972Z,65
2022-09-28T12:26:50.568Z,65.3
2022-09-28T12:27:54.310Z,65.2
2022-09-28T12:28:56.745Z,65.6
2022-09-28T12:30:00.274Z,66.9
2022-09-28T12:31:03.276Z,67.6
2022-09-28T12:32:06.829Z,68.5
2022-09-28T12:33:09.822Z,69.3
2022-09-28T12:34:13.889Z,69
2022-09-28T12:35:17.068Z,69.2
2022-09-28T12:36:19.851Z,67.2
2022-09-28T12:37:22.353Z,66.8
2022-09-28T12:38:25.066Z,67.6
2022-09-28T12:39:59.024Z,68.3
2022-09-28T12:41:05.230Z,67.3
2022-09-28T12:42:08.642Z,69.4
2022-09-28T12:43:11.805Z,68.8
2022-09-28T12:44:14.177Z,68.3
2022-09-28T12:45:17.884Z,67.7
2022-09-28T12:46:21.381Z,67.7
2022-09-28T12:47:23.854Z,67.1
2022-09-28T12:48:27.075Z,66.8
2022-09-28T12:50:44.104Z,67.7
2022-09-28T12:52:01.403Z,69.8
2022-09-28T12:53:04.878Z,69.8
2022-09-28T12:54:07.948Z,71.3
2022-09-28T12:56:21.984Z,71.4
2022-09-28T12:57:24.774Z,72.6
2022-09-28T12:58:27.221Z,72.9
2022-09-28T12:59:30.392Z,70.2
2022-09-28T13:00:33.192Z,70.5
2022-09-28T13:01:36.894Z,70.8
2022-09-28T13:02:40.713Z,71.5
2022-09-28T13:03:44.646Z,70.7
2022-09-28T13:04:48.770Z,71.9
2022-09-28T13:05:52.504Z,72.2
2022-09-28T13:06:55.565Z,72.5
2022-09-28T13:07:58.906Z,73.7
2022-09-28T13:09:01.819Z,71.8
2022-09-28T13:10:05.169Z,72
2022-09-28T13:11:09.305Z,71.3
2022-09-28T13:12:12.309Z,71.8
2022-09-28T13:13:16.161Z,72.8
2022-09-28T13:14:18.800Z,73.4
2022-09-28T13:15:22.506Z,73.4
2022-09-28T13:16:26.316Z,73.8
2022-09-28T13:17:29.678Z,73.9
2022-09-28T13:18:33.163Z,72.8
2022-09-28T13:19:36.276Z,73.3
2022-09-28T13:20:40.355Z,73.7
2022-09-28T13:21:43.454Z,73.3
2022-09-28T13:22:46.167Z,74
2022-09-28T13:23:49.906Z,75.4
2022-09-28T13:24:53.093Z,75.4
2022-09-28T13:25:55.805Z,75.4
2022-09-28T13:26:58.807Z,75.6
2022-09-28T13:28:01.694Z,75.2
2022-09-28T13:29:05.117Z,75.6
2022-09-28T13:30:08.027Z,76.1
2022-09-28T13:31:10.472Z,76.4
2022-09-28T13:32:13.073Z,76
2022-09-28T13:33:15.856Z,76.3
2022-09-28T13:34:18.936Z,76.2
2022-09-28T13:35:22.648Z,76.4
2022-09-28T13:36:26.594Z,76
2022-09-28T13:37:29.690Z,75.4
2022-09-28T13:38:32.766Z,73.5
2022-09-28T13:39:36.470Z,74.5
2022-09-28T13:40:40.607Z,74.3
2022-09-28T13:41:43.343Z,71.7
2022-09-28T13:42:46.967Z,73.1
2022-09-28T13:43:50.028Z,73.7
2022-09-28T13:44:52.935Z,73.5
2022-09-28T13:45:56.693Z,73.1
2022-09-28T13:46:59.338Z,71.8
2022-09-28T13:48:03.063Z,69.7
2022-09-28T13:49:06.418Z,69
2022-09-28T13:50:09.328Z,67.7
2022-09-28T13:51:12.639Z,68.1
2022-09-28T13:52:16.531Z,67.4
2022-09-28T13:53:19.734Z,66.6
2022-09-28T13:54:23.113Z,66.4
2022-09-28T13:55:26.217Z,66.2
2022-09-28T13:56:29.277Z,64.5
2022-09-28T13:57:32.151Z,63.2
2022-09-28T13:58:35.297Z,63.7
2022-09-28T13:59:38.290Z,63.8
2022-09-28T14:00:42.331Z,62.8
2022-09-28T14:01:46.134Z,63.8
2022-09-28T14:02:49.340Z,63.1
2022-09-28T14:03:52.961Z,62.8
2022-09-28T14:04:56.416Z,61.8
2022-09-28T14:05:59.237Z,60.5
2022-09-28T14:07:02.049Z,60.6
2022-09-28T14:08:05.906Z,62
2022-09-28T14:09:09.273Z,63.9
2022-09-28T14:10:13.078Z,64.4
2022-09-28T14:11:16.143Z,65.7
2022-09-28T14:12:19.215Z,67.1
2022-09-28T14:13:22.080Z,67
2022-09-28T14:14:25.230Z,64.5
2022-09-28T14:15:28.610Z,64.6
2022-09-28T14:16:32.661Z,66
2022-09-28T14:17:35.949Z,65.7
2022-09-28T14:18:39.402Z,63.7